Time;durP1;ratioP1;P1;durP2;ratioP2;P2;SDS_P1;SDS_P2;PMS_P1;PMS_P2;Temp;Humidity;BMP_temperature;BMP_pressure;BME280_temperature;BME280_humidity;BME280_pressure;Samples;Min_cycle;Max_cycle;Signal;HPM_P1;HPM_P2
2023/08/21 00:00:55;;;;;;;5.20;2.45;;;;;;;20.00;76.84;102238.84;5048308;28;20075;-69
2023/08/21 00:03:20;;;;;;;12.07;3.47;;;;;;;20.09;76.60;102237.66;5040214;28;20024;-69
2023/08/21 00:05:46;;;;;;;6.47;3.13;;;;;;;20.11;76.64;102235.59;5042101;28;20119;-69
2023/08/21 00:08:11;;;;;;;8.05;3.05;;;;;;;20.04;76.77;102232.03;5039271;28;20028;-69
2023/08/21 00:10:40;;;;;;;7.18;2.90;;;;;;;19.94;77.32;102244.19;5041280;28;20052;-69
2023/08/21 00:13:06;;;;;;;10.65;3.30;;;;;;;19.87;77.67;102241.47;5046641;28;20059;-69
2023/08/21 00:15:31;;;;;;;11.52;3.40;;;;;;;19.84;78.32;102241.84;5033610;28;20021;-69
2023/08/21 00:17:57;;;;;;;7.55;3.42;;;;;;;19.94;77.78;102226.16;5046136;28;20519;-69
2023/08/21 00:20:22;;;;;;;7.13;3.03;;;;;;;19.96;78.08;102228.69;5044692;28;20049;-69
2023/08/21 00:22:47;;;;;;;9.63;3.10;;;;;;;20.03;78.49;102230.38;5038462;28;20126;-69
2023/08/21 00:25:12;;;;;;;9.48;3.88;;;;;;;19.96;78.19;102234.91;5041667;28;20083;-69
2023/08/21 00:27:38;;;;;;;8.13;3.33;;;;;;;19.84;78.38;102236.47;5032173;28;20027;-69
2023/08/21 00:30:03;;;;;;;17.42;3.55;;;;;;;19.73;78.28;102235.16;5038094;28;20036;-69
2023/08/21 00:32:29;;;;;;;10.82;3.88;;;;;;;19.63;78.91;102229.25;5037341;28;20033;-69
2023/08/21 00:34:54;;;;;;;7.47;3.40;;;;;;;19.69;78.78;102217.72;5044077;28;20040;-69
2023/08/21 00:37:19;;;;;;;7.72;2.95;;;;;;;19.75;78.68;102221.47;5045254;28;20576;-69
2023/08/21 00:39:45;;;;;;;12.10;3.33;;;;;;;19.70;78.92;102208.59;5036854;28;20033;-69
2023/08/21 00:42:10;;;;;;;10.48;3.20;;;;;;;19.72;79.14;102221.88;5041535;28;20028;-69
2023/08/21 00:44:35;;;;;;;8.95;2.92;;;;;;;19.75;79.34;102222.31;5034466;28;20132;-69
2023/08/21 00:47:01;;;;;;;7.78;3.10;;;;;;;19.76;79.28;102228.53;5043704;28;20025;-69
2023/08/21 00:49:26;;;;;;;9.35;3.35;;;;;;;19.77;79.68;102219.41;5037231;28;20066;-69
2023/08/21 00:51:53;;;;;;;10.75;3.35;;;;;;;19.79;79.54;102225.44;5035528;28;20033;-69
2023/08/21 00:54:19;;;;;;;8.38;3.35;;;;;;;19.67;79.69;102214.38;5054211;28;20383;-69
2023/08/21 00:56:44;;;;;;;9.43;3.60;;;;;;;19.63;80.24;102217.66;5045326;28;20040;-69
2023/08/21 00:59:10;;;;;;;7.75;3.75;;;;;;;19.55;80.39;102217.81;5045393;28;20100;-69
2023/08/21 01:01:36;;;;;;;8.65;2.88;;;;;;;19.51;80.69;102222.72;5045092;28;20090;-69
2023/08/21 01:04:02;;;;;;;9.07;3.03;;;;;;;19.45;80.88;102228.91;5045155;28;20474;-69
2023/08/21 01:06:28;;;;;;;8.88;3.17;;;;;;;19.37;81.23;102220.94;5046621;28;20052;-69
2023/08/21 01:09:01;;;;;;;8.18;2.92;;;;;;;19.27;81.81;102225.84;5042971;28;20639;-69
2023/08/21 01:11:37;;;;;;;9.50;3.40;;;;;;;19.27;82.39;102223.97;5044976;28;20021;-69
2023/08/21 01:14:39;;;;;;;7.90;3.40;;;;;;;19.28;83.04;102225.66;5047075;28;20040;-69
2023/08/21 01:17:08;;;;;;;7.43;3.05;;;;;;;19.22;83.18;102226.44;5035401;28;20602;-69
2023/08/21 01:19:41;;;;;;;7.35;3.25;;;;;;;19.24;83.58;102228.94;5042422;28;20028;-69
2023/08/21 01:22:06;;;;;;;9.10;3.78;;;;;;;19.16;83.54;102224.50;5040942;28;20413;-69
2023/08/21 01:24:33;;;;;;;10.77;3.88;;;;;;;19.03;83.95;102216.28;5044920;28;20051;-69
2023/08/21 01:26:58;;;;;;;10.82;4.00;;;;;;;19.10;83.81;102206.44;5039430;28;20505;-69
2023/08/21 01:29:23;;;;;;;10.77;3.83;;;;;;;19.20;84.16;102215.00;5044726;28;20027;-69
2023/08/21 01:32:15;;;;;;;8.15;3.90;;;;;;;19.23;83.99;102211.94;5036750;28;20041;-69
2023/08/21 01:34:42;;;;;;;8.38;3.80;;;;;;;19.23;83.94;102203.03;5032864;28;20087;-69
2023/08/21 01:37:08;;;;;;;9.52;3.97;;;;;;;19.20;83.85;102212.31;5039006;28;20517;-69
2023/08/21 01:39:33;;;;;;;12.95;3.55;;;;;;;19.18;84.06;102203.59;5041026;28;20027;-69
2023/08/21 01:41:59;;;;;;;7.38;3.92;;;;;;;19.13;83.55;102214.13;5038136;28;20116;-69
2023/08/21 01:44:24;;;;;;;7.72;3.38;;;;;;;19.13;84.06;102214.13;5040265;28;20082;-69
2023/08/21 01:46:49;;;;;;;7.57;3.58;;;;;;;19.08;83.97;102211.16;5033663;28;20030;-69
2023/08/21 01:49:15;;;;;;;7.45;3.50;;;;;;;19.13;84.32;102214.13;5036128;28;20022;-69
2023/08/21 01:51:40;;;;;;;10.27;3.90;;;;;;;19.15;84.61;102220.16;5032627;28;20032;-69
2023/08/21 01:54:05;;;;;;;7.45;3.78;;;;;;;19.15;84.76;102214.78;5047725;28;20017;-69
2023/08/21 01:56:31;;;;;;;7.80;3.70;;;;;;;19.19;84.64;102216.03;5035003;28;20044;-69
2023/08/21 01:58:56;;;;;;;8.15;4.15;;;;;;;19.22;84.59;102215.66;5032859;28;20080;-69
2023/08/21 02:01:21;;;;;;;9.52;3.70;;;;;;;19.23;84.50;102221.88;5027326;28;20487;-69
2023/08/21 02:03:46;;;;;;;7.70;3.90;;;;;;;19.23;84.34;102222.72;5030258;28;20033;-69
2023/08/21 02:06:12;;;;;;;10.60;4.07;;;;;;;19.16;84.54;102224.50;5030601;28;20018;-69
2023/08/21 02:08:37;;;;;;;12.13;4.70;;;;;;;19.14;84.83;102234.66;5030934;28;20018;-69
2023/08/21 02:11:02;;;;;;;10.13;4.53;;;;;;;19.03;84.70;102205.53;5029070;28;20032;-69
2023/08/21 02:13:28;;;;;;;6.90;4.05;;;;;;;19.09;84.65;102220.94;5031617;28;20495;-69
2023/08/21 02:15:53;;;;;;;10.30;3.75;;;;;;;19.15;85.09;102223.69;5029837;28;20045;-70
2023/08/21 02:18:18;;;;;;;6.78;3.78;;;;;;;19.11;85.06;102230.47;5034278;28;20196;-69
2023/08/21 02:20:43;;;;;;;8.98;4.10;;;;;;;19.11;85.20;102222.41;5035193;28;20033;-69
2023/08/21 02:23:09;;;;;;;12.35;3.50;;;;;;;18.97;85.03;102225.16;5035030;28;20028;-69
2023/08/21 02:25:34;;;;;;;11.45;3.50;;;;;;;18.82;85.32;102233.31;5033022;28;20029;-68
2023/08/21 02:28:00;;;;;;;7.72;3.70;;;;;;;18.71;85.60;102234.59;5028907;28;20021;-69
2023/08/21 02:30:26;;;;;;;11.90;4.22;;;;;;;18.71;86.21;102234.59;5034749;28;20091;-69
2023/08/21 02:32:54;;;;;;;9.73;4.13;;;;;;;18.62;86.25;102241.13;5034485;28;20033;-69
2023/08/21 02:35:20;;;;;;;11.40;4.30;;;;;;;18.64;86.18;102231.03;5034009;28;20082;-69
2023/08/21 02:37:45;;;;;;;10.80;4.40;;;;;;;18.72;86.38;102224.69;5037934;28;20033;-69
2023/08/21 02:40:11;;;;;;;11.25;3.90;;;;;;;18.74;86.24;102233.41;5041592;28;20031;-69
2023/08/21 02:42:36;;;;;;;9.10;3.90;;;;;;;18.76;86.87;102232.19;5034267;28;20108;-69
2023/08/21 02:45:07;;;;;;;13.82;4.00;;;;;;;18.77;87.00;102231.16;5028467;28;20029;-69
2023/08/21 02:47:35;;;;;;;7.05;4.00;;;;;;;18.74;87.06;102234.22;5031583;28;20024;-69
2023/08/21 02:50:00;;;;;;;8.48;4.07;;;;;;;18.77;87.25;102233.00;5028410;28;20185;-69
2023/08/21 02:52:26;;;;;;;9.73;4.18;;;;;;;18.82;87.18;102234.13;5040361;28;20481;-69
2023/08/21 02:54:51;;;;;;;6.47;3.88;;;;;;;18.77;87.26;102228.47;5041328;28;20017;-69
2023/08/21 02:57:16;;;;;;;7.53;4.10;;;;;;;18.78;87.36;102234.69;5028108;28;20029;-69
2023/08/21 02:59:41;;;;;;;7.97;4.03;;;;;;;18.79;87.46;102230.97;5027327;28;20029;-69
2023/08/21 03:02:07;;;;;;;10.05;4.68;;;;;;;18.80;87.35;102225.41;5030444;28;20083;-69
2023/08/21 03:04:32;;;;;;;7.57;4.13;;;;;;;18.86;87.36;102221.13;5029867;28;20022;-68
2023/08/21 03:06:57;;;;;;;8.07;3.90;;;;;;;18.91;87.30;102231.31;5027486;28;20028;-69
2023/08/21 03:09:22;;;;;;;9.82;4.18;;;;;;;18.93;86.80;102223.88;5035074;28;20045;-69
2023/08/21 03:11:47;;;;;;;8.27;4.10;;;;;;;18.94;86.77;102225.53;5041101;28;20043;-69
2023/08/21 03:14:13;;;;;;;7.70;3.85;;;;;;;18.92;86.89;102223.03;5032241;28;20029;-69
2023/08/21 03:16:38;;;;;;;9.38;4.45;;;;;;;18.88;86.89;102230.66;5028893;28;20056;-68
2023/08/21 03:19:03;;;;;;;10.35;4.65;;;;;;;18.87;86.81;102231.69;5034277;28;20032;-69
2023/08/21 03:21:29;;;;;;;9.20;4.30;;;;;;;18.81;86.98;102226.25;5032135;28;20038;-69
2023/08/21 03:23:56;;;;;;;9.05;3.92;;;;;;;18.77;86.93;102233.84;5028171;28;20032;-69
2023/08/21 03:26:22;;;;;;;10.27;3.70;;;;;;;18.72;86.90;102238.97;5033789;28;20021;-68
2023/08/21 03:28:47;;;;;;;7.82;4.07;;;;;;;18.66;87.05;102241.59;5029126;28;20021;-69
2023/08/21 03:31:14;;;;;;;11.77;4.43;;;;;;;18.58;87.49;102237.97;5028660;28;20071;-69
2023/08/21 03:33:39;;;;;;;9.52;4.45;;;;;;;18.53;87.40;102231.50;5032507;28;20025;-69
2023/08/21 03:36:05;;;;;;;10.05;4.60;;;;;;;18.47;87.90;102229.53;5027890;28;20017;-69
2023/08/21 03:38:30;;;;;;;9.15;4.75;;;;;;;18.45;88.30;102234.25;5028795;28;20036;-69
2023/08/21 03:40:55;;;;;;;12.43;5.20;;;;;;;18.53;88.33;102220.72;5030101;28;20514;-69
2023/08/21 03:43:20;;;;;;;10.65;4.50;;;;;;;18.53;88.33;102218.03;5033166;28;20029;-69
2023/08/21 03:45:46;;;;;;;8.48;4.18;;;;;;;18.58;88.26;102212.91;5032134;28;20029;-69
2023/08/21 03:48:11;;;;;;;9.40;4.38;;;;;;;18.45;87.92;102220.81;5042316;28;20070;-69
2023/08/21 03:50:36;;;;;;;9.18;4.43;;;;;;;18.45;88.44;102223.50;5040476;28;20040;-69
2023/08/21 03:53:01;;;;;;;10.02;5.20;;;;;;;18.48;88.01;102215.06;5042638;28;20379;-69
2023/08/21 03:55:27;;;;;;;8.90;5.07;;;;;;;18.52;88.25;102219.06;5035930;28;20025;-69
2023/08/21 03:57:52;;;;;;;11.50;5.78;;;;;;;18.54;87.98;102220.53;5030288;28;20022;-69
2023/08/21 04:00:17;;;;;;;8.90;4.68;;;;;;;18.53;88.09;102220.72;5035987;28;20033;-68
2023/08/21 04:02:43;;;;;;;9.73;4.95;;;;;;;18.50;88.15;102216.56;5031404;28;20659;-69
2023/08/21 04:05:08;;;;;;;7.30;4.25;;;;;;;18.41;87.79;102227.59;5030482;28;20025;-69
2023/08/21 04:07:33;;;;;;;6.97;4.78;;;;;;;18.34;88.02;102230.22;5038332;28;20498;-68
2023/08/21 04:09:58;;;;;;;9.65;4.50;;;;;;;18.25;87.42;102228.66;5045010;28;20035;-69
2023/08/21 04:12:24;;;;;;;6.68;4.32;;;;;;;18.35;88.39;102226.50;5049130;28;20119;-69
2023/08/21 04:14:49;;;;;;;11.57;4.40;;;;;;;18.35;88.54;102226.50;5043361;28;20570;-69
2023/08/21 04:17:14;;;;;;;7.03;4.50;;;;;;;18.31;88.48;102235.97;5048324;28;20095;-69
2023/08/21 04:19:40;;;;;;;9.52;4.85;;;;;;;18.30;88.57;102230.78;5036195;28;20036;-69
2023/08/21 04:22:06;;;;;;;9.80;4.55;;;;;;;18.19;88.58;102227.53;5046918;28;20398;-68
2023/08/21 04:24:31;;;;;;;11.35;5.15;;;;;;;18.21;88.77;102230.03;5029747;28;20025;-69
2023/08/21 04:26:57;;;;;;;13.32;5.20;;;;;;;18.29;89.00;102229.94;5044210;28;20040;-69
2023/08/21 04:29:22;;;;;;;11.93;5.25;;;;;;;18.27;88.96;102230.13;5037711;28;20017;-68
2023/08/21 04:31:48;;;;;;;12.80;5.90;;;;;;;18.29;89.18;102234.50;5039278;28;20438;-68
2023/08/21 04:34:13;;;;;;;10.20;5.20;;;;;;;18.26;88.91;102236.53;5044860;28;20029;-69
2023/08/21 04:36:38;;;;;;;9.50;4.97;;;;;;;18.25;88.79;102237.56;5047729;28;20029;-69
2023/08/21 04:39:04;;;;;;;8.10;4.63;;;;;;;18.18;89.06;102236.63;5040603;28;20033;-69
2023/08/21 04:41:29;;;;;;;9.85;4.97;;;;;;;18.13;89.37;102243.56;5052542;28;20499;-69
2023/08/21 04:43:54;;;;;;;12.23;5.10;;;;;;;18.09;89.34;102244.97;5041227;28;20028;-69
2023/08/21 04:46:19;;;;;;;14.10;5.25;;;;;;;17.94;89.31;102243.13;5038918;28;20025;-69
2023/08/21 04:48:45;;;;;;;13.82;5.03;;;;;;;17.89;89.66;102250.88;5038112;28;20486;-69
2023/08/21 04:51:10;;;;;;;13.30;5.25;;;;;;;17.89;89.95;102247.38;5040058;28;20024;-69
2023/08/21 04:53:35;;;;;;;10.27;5.38;;;;;;;17.88;90.52;102243.00;5046159;28;20014;-69
2023/08/21 04:56:01;;;;;;;8.65;5.38;;;;;;;17.76;90.62;102234.59;5047191;28;20023;-69
2023/08/21 04:58:26;;;;;;;12.23;6.15;;;;;;;17.86;90.88;102248.56;5034160;28;20159;-69
2023/08/21 05:00:51;;;;;;;12.10;5.75;;;;;;;17.86;91.06;102248.56;5036933;28;20029;-69
2023/08/21 05:03:17;;;;;;;11.13;6.32;;;;;;;17.90;91.44;102257.09;5042124;28;20048;-69
2023/08/21 05:05:42;;;;;;;14.82;6.00;;;;;;;17.98;91.85;102259.72;5041003;28;20036;-69
2023/08/21 05:08:07;;;;;;;9.85;6.07;;;;;;;18.03;91.65;102262.69;5043142;28;20020;-69
2023/08/21 05:10:32;;;;;;;13.32;6.40;;;;;;;18.07;91.58;102263.97;5040399;28;20566;-69
2023/08/21 05:12:58;;;;;;;11.88;6.35;;;;;;;18.07;91.65;102260.47;5032550;28;20029;-68
2023/08/21 05:15:23;;;;;;;12.52;6.70;;;;;;;18.09;91.61;102266.47;5045919;28;20056;-68
2023/08/21 05:17:48;;;;;;;11.88;6.47;;;;;;;18.11;91.61;102259.91;5035559;28;20704;-69
2023/08/21 05:20:14;;;;;;;12.90;7.05;;;;;;;18.14;91.50;102264.91;5028844;28;20029;-69
2023/08/21 05:22:40;;;;;;;10.20;6.40;;;;;;;18.16;91.68;102268.25;5032694;28;20057;-69
2023/08/21 05:25:06;;;;;;;13.07;6.63;;;;;;;18.12;91.87;102275.00;5032940;28;20032;-68
2023/08/21 05:27:31;;;;;;;12.90;6.47;;;;;;;18.10;91.54;102273.53;5032831;28;20024;-68
2023/08/21 05:29:56;;;;;;;9.68;6.50;;;;;;;18.14;92.15;102280.19;5030819;28;20685;-69
2023/08/21 05:32:22;;;;;;;12.00;6.53;;;;;;;18.17;92.32;102280.66;5033931;28;20029;-69
2023/08/21 05:34:47;;;;;;;13.85;7.28;;;;;;;18.23;92.11;102276.41;5032727;28;20033;-69
2023/08/21 05:37:13;;;;;;;14.20;7.22;;;;;;;18.26;91.96;102278.72;5037701;28;20033;-69
2023/08/21 05:39:38;;;;;;;14.15;7.40;;;;;;;18.35;91.86;102277.59;5032318;28;20026;-69
2023/08/21 05:42:03;;;;;;;12.25;6.93;;;;;;;18.38;92.10;102276.41;5029025;28;20061;-69
2023/08/21 05:44:29;;;;;;;12.18;6.97;;;;;;;18.41;92.30;102287.63;5037075;28;20082;-69
2023/08/21 05:46:54;;;;;;;11.00;6.70;;;;;;;18.47;92.61;102283.34;5035926;28;20017;-69
2023/08/21 05:49:19;;;;;;;11.75;6.72;;;;;;;18.49;92.81;102289.34;5026555;28;20029;-69
2023/08/21 05:51:44;;;;;;;11.88;6.35;;;;;;;18.53;92.75;102285.31;5030270;28;20479;-69
2023/08/21 05:54:10;;;;;;;13.82;6.72;;;;;;;18.53;92.99;102283.44;5031163;28;20021;-69
2023/08/21 05:56:35;;;;;;;10.40;6.20;;;;;;;18.53;92.84;102283.44;5029571;28;20083;-69
2023/08/21 05:59:00;;;;;;;11.35;6.72;;;;;;;18.53;93.15;102278.06;5036309;28;20029;-69
2023/08/21 06:01:25;;;;;;;13.02;7.03;;;;;;;18.61;92.91;102281.66;5036059;28;20024;-68
2023/08/21 06:03:51;;;;;;;13.13;7.20;;;;;;;18.62;92.73;102286.03;5041136;28;20394;-68
2023/08/21 06:06:16;;;;;;;10.35;6.55;;;;;;;18.60;92.92;102282.69;5042262;28;20054;-68
2023/08/21 06:08:41;;;;;;;14.35;6.43;;;;;;;18.61;92.94;102289.72;5033189;28;20712;-68
2023/08/21 06:11:06;;;;;;;9.93;6.60;;;;;;;18.58;93.48;102289.09;5036078;28;20040;-68
2023/08/21 06:13:32;;;;;;;11.30;6.53;;;;;;;18.59;93.37;102292.63;5032024;28;20037;-69
2023/08/21 06:15:57;;;;;;;11.82;6.90;;;;;;;18.61;93.66;102289.72;5038502;28;20077;-68
2023/08/21 06:18:22;;;;;;;12.52;7.10;;;;;;;18.66;93.88;102296.25;5033127;28;20025;-68
2023/08/21 06:20:53;;;;;;;12.75;7.35;;;;;;;18.73;94.05;102297.16;5043000;28;20043;-69
2023/08/21 06:23:18;;;;;;;13.57;6.68;;;;;;;18.82;93.80;102296.03;5040954;28;20082;-69
2023/08/21 06:25:44;;;;;;;12.43;7.93;;;;;;;18.90;93.71;102292.38;5036096;28;20028;-68
2023/08/21 06:28:09;;;;;;;15.80;7.05;;;;;;;19.06;93.70;102299.38;5039033;28;20021;-68
2023/08/21 06:30:34;;;;;;;13.98;7.15;;;;;;;19.01;93.59;102289.19;5035854;28;20025;-68
2023/08/21 06:33:00;;;;;;;15.93;7.18;;;;;;;19.19;93.48;102292.28;5036794;28;20033;-68
2023/08/21 06:35:25;;;;;;;13.82;7.07;;;;;;;19.42;93.25;102299.34;5030362;28;20546;-68
2023/08/21 06:37:50;;;;;;;11.73;7.07;;;;;;;19.58;93.44;102295.56;5032562;28;20037;-68
2023/08/21 06:40:15;;;;;;;13.68;7.28;;;;;;;19.79;93.06;102298.22;5038520;28;20025;-69
2023/08/21 06:42:41;;;;;;;14.80;6.88;;;;;;;19.89;92.06;102292.50;5041551;28;20029;-69
2023/08/21 06:45:07;;;;;;;13.57;6.80;;;;;;;19.99;91.09;102293.81;5028092;28;20649;-68
2023/08/21 06:47:33;;;;;;;14.23;7.25;;;;;;;20.10;90.23;102289.72;5036593;28;20398;-68
2023/08/21 06:50:00;;;;;;;12.05;6.80;;;;;;;20.19;89.05;102304.72;5037039;28;20028;-68
2023/08/21 06:52:25;;;;;;;16.38;7.40;;;;;;;20.25;88.24;102303.13;5038220;28;20104;-68
2023/08/21 06:54:51;;;;;;;15.32;7.25;;;;;;;20.37;87.78;102307.75;5041325;28;20766;-69
2023/08/21 06:57:16;;;;;;;13.40;6.68;;;;;;;20.48;87.02;102303.66;5035186;28;20036;-69
2023/08/21 06:59:41;;;;;;;12.50;6.60;;;;;;;20.56;86.45;102303.50;5045292;28;20052;-68
2023/08/21 07:02:06;;;;;;;9.82;5.80;;;;;;;20.63;85.28;102309.78;5045359;28;20025;-69
2023/08/21 07:04:33;;;;;;;9.20;6.15;;;;;;;20.65;84.22;102304.16;5037797;28;20025;-68
2023/08/21 07:06:58;;;;;;;14.68;6.63;;;;;;;20.72;83.45;102313.94;5033120;28;20048;-69
2023/08/21 07:09:24;;;;;;;13.75;6.40;;;;;;;20.67;82.06;102312.88;5044776;28;20492;-68
2023/08/21 07:11:49;;;;;;;12.30;5.80;;;;;;;20.70;81.59;102307.91;5044859;28;20036;-68
2023/08/21 07:14:15;;;;;;;12.82;6.18;;;;;;;20.81;81.26;102311.06;5041808;28;20028;-69
2023/08/21 07:16:40;;;;;;;12.75;5.15;;;;;;;20.82;79.97;102315.47;5045677;28;20025;-69
2023/08/21 07:19:05;;;;;;;12.52;5.68;;;;;;;20.85;79.53;102306.94;5044498;28;20132;-69
2023/08/21 07:21:30;;;;;;;11.27;5.85;;;;;;;20.91;79.06;102316.94;5044642;28;20025;-68
2023/08/21 07:23:56;;;;;;;12.48;5.70;;;;;;;20.97;78.50;102316.13;5043984;28;20033;-69
2023/08/21 07:26:21;;;;;;;12.50;5.82;;;;;;;21.03;78.05;102309.91;5038746;28;20029;-69
2023/08/21 07:28:46;;;;;;;14.63;5.88;;;;;;;21.10;78.03;102318.84;5045423;28;20570;-68
2023/08/21 07:31:12;;;;;;;15.98;5.68;;;;;;;21.18;77.95;102321.38;5042898;28;20025;-69
2023/08/21 07:33:37;;;;;;;12.35;6.13;;;;;;;21.24;77.78;102325.97;5045700;28;20506;-69
2023/08/21 07:36:04;;;;;;;10.48;5.45;;;;;;;21.28;76.70;102326.41;5042734;28;20478;-69
2023/08/21 07:38:30;;;;;;;11.57;5.05;;;;;;;21.37;76.48;102327.03;5040214;28;20024;-69
2023/08/21 07:41:03;;;;;;;11.60;5.63;;;;;;;21.44;75.54;102322.50;5049720;28;20024;-69
2023/08/21 07:43:28;;;;;;;12.57;4.78;;;;;;;21.50;74.94;102319.78;5051184;28;20029;-69
2023/08/21 07:45:53;;;;;;;10.90;4.40;;;;;;;21.55;74.21;102316.47;5046954;28;20029;-69
2023/08/21 07:48:19;;;;;;;11.20;4.80;;;;;;;21.60;73.41;102320.19;5033095;28;20581;-69
2023/08/21 07:50:53;;;;;;;13.75;4.80;;;;;;;21.66;72.93;102321.22;5041904;28;20025;-69
2023/08/21 07:53:19;;;;;;;15.13;5.10;;;;;;;21.71;72.89;102324.16;5042216;28;20100;-69
2023/08/21 07:55:45;;;;;;;9.70;4.90;;;;;;;21.77;72.53;102317.09;5034001;28;20115;-69
2023/08/21 07:58:11;;;;;;;10.75;4.32;;;;;;;21.80;72.13;102320.19;5047065;28;20391;-69
2023/08/21 08:00:36;;;;;;;15.35;4.30;;;;;;;21.90;71.72;102319.78;5046993;28;20108;-69
2023/08/21 08:03:01;;;;;;;10.52;4.00;;;;;;;21.91;71.29;102319.56;5041018;28;20380;-69
2023/08/21 08:05:27;;;;;;;10.52;3.60;;;;;;;21.93;70.66;102325.59;5042071;28;20450;-69
2023/08/21 08:07:52;;;;;;;7.93;3.60;;;;;;;22.00;70.31;102332.88;5043007;28;20037;-69
2023/08/21 08:10:17;;;;;;;13.10;3.95;;;;;;;22.05;70.59;102327.72;5049192;28;20104;-69
2023/08/21 08:12:44;;;;;;;10.95;3.25;;;;;;;22.12;70.34;102329.34;5043010;28;20079;-69
2023/08/21 08:15:10;;;;;;;11.55;3.53;;;;;;;22.17;69.42;102336.84;5048986;28;20103;-69
2023/08/21 08:17:35;;;;;;;8.52;3.10;;;;;;;22.16;69.00;102327.06;5038751;28;20051;-69
2023/08/21 08:20:01;;;;;;;7.78;3.10;;;;;;;22.20;68.52;102336.41;5039048;28;20460;-68
2023/08/21 08:22:26;;;;;;;8.95;3.05;;;;;;;22.23;67.99;102336.81;5038733;28;20029;-68
2023/08/21 08:24:51;;;;;;;8.60;2.80;;;;;;;22.25;67.72;102344.72;5045056;28;20029;-69
2023/08/21 08:27:17;;;;;;;11.35;2.92;;;;;;;22.28;67.69;102335.38;5037911;28;20052;-69
2023/08/21 08:29:42;;;;;;;10.98;2.90;;;;;;;22.20;66.98;102334.53;5038967;28;20037;-69
2023/08/21 08:32:07;;;;;;;7.38;2.90;;;;;;;22.28;67.48;102333.50;5045082;28;20052;-69
2023/08/21 08:34:32;;;;;;;8.73;3.00;;;;;;;22.34;67.82;102337.22;5040305;28;20122;-69
2023/08/21 08:36:58;;;;;;;10.82;3.80;;;;;;;22.36;67.91;102327.00;5045714;28;20027;-69
2023/08/21 08:39:23;;;;;;;11.40;3.70;;;;;;;22.37;68.28;102332.22;5038648;28;20028;-69
2023/08/21 08:42:02;;;;;;;9.15;3.35;;;;;;;22.47;68.69;102335.31;5034831;28;20057;-69
2023/08/21 08:44:29;;;;;;;19.63;5.90;;;;;;;22.46;68.73;102325.50;5032284;28;20021;-69
2023/08/21 08:46:55;;;;;;;13.60;4.00;;;;;;;22.42;67.27;102342.41;5031020;28;20154;-69
2023/08/21 08:49:22;;;;;;;9.20;3.20;;;;;;;22.42;66.07;102345.09;5034498;28;20769;-68
2023/08/21 08:51:49;;;;;;;42.85;12.52;;;;;;;22.43;66.66;102336.78;5038555;28;20044;-69
2023/08/21 08:54:16;;;;;;;12.07;3.45;;;;;;;22.50;66.99;102331.34;5041230;28;20032;-69
2023/08/21 08:56:41;;;;;;;10.30;2.90;;;;;;;22.54;66.98;102335.28;5039652;28;20395;-69
2023/08/21 08:59:08;;;;;;;7.85;2.58;;;;;;;22.52;65.24;102337.38;5032990;28;20030;-69
2023/08/21 09:01:34;;;;;;;11.68;2.60;;;;;;;22.52;65.13;102342.78;5032591;28;20075;-69
2023/08/21 09:04:00;;;;;;;7.03;2.00;;;;;;;22.50;64.50;102334.03;5038899;28;20030;-69
2023/08/21 09:06:26;;;;;;;12.02;2.75;;;;;;;22.48;64.36;102336.97;5053434;28;20029;-69
2023/08/21 09:08:56;;;;;;;8.68;2.53;;;;;;;22.52;64.95;102329.25;5033273;28;20017;-69
2023/08/21 09:11:22;;;;;;;7.72;2.13;;;;;;;22.53;64.54;102331.72;5039795;28;20094;-69
2023/08/21 09:13:51;;;;;;;11.40;2.83;;;;;;;22.45;64.13;102328.44;5032439;28;20487;-69
2023/08/21 09:16:18;;;;;;;15.38;3.08;;;;;;;22.63;64.42;102335.88;5032747;28;20465;-69
2023/08/21 09:18:53;;;;;;;6.82;1.83;;;;;;;22.64;63.58;102337.56;5028476;28;20044;-69
2023/08/21 09:21:20;;;;;;;11.38;1.83;;;;;;;22.64;62.70;102332.97;5030114;28;20064;-69
2023/08/21 09:23:46;;;;;;;6.57;1.80;;;;;;;22.73;62.29;102333.53;5033960;28;20037;-69
2023/08/21 09:26:21;;;;;;;7.47;1.77;;;;;;;22.84;61.70;102330.19;5035435;28;20021;-69
2023/08/21 09:28:51;;;;;;;6.72;2.25;;;;;;;22.91;61.45;102333.72;5032980;28;20040;-69
2023/08/21 09:31:23;;;;;;;8.75;2.15;;;;;;;23.21;60.47;102325.00;5036712;28;20106;-70
2023/08/21 09:34:04;;;;;;;6.53;2.00;;;;;;;23.39;60.41;102325.91;5038371;28;20047;-67
2023/08/21 09:36:30;;;;;;;9.63;2.25;;;;;;;23.58;59.41;102329.53;5031057;28;20028;-67
2023/08/21 09:38:55;;;;;;;10.23;2.28;;;;;;;23.75;59.61;102332.56;5033335;28;20032;-67
2023/08/21 09:41:21;;;;;;;7.00;1.85;;;;;;;23.84;60.11;102333.94;5034734;28;20025;-67
2023/08/21 09:43:47;;;;;;;9.73;2.15;;;;;;;23.86;59.27;102334.53;5030320;28;20117;-67
2023/08/21 09:46:26;;;;;;;10.07;2.05;;;;;;;24.00;60.10;102333.38;5034538;28;20119;-68
2023/08/21 09:48:52;;;;;;;7.10;1.52;;;;;;;24.04;60.08;102331.03;5040726;28;20021;-67
2023/08/21 09:51:17;;;;;;;8.18;2.00;;;;;;;24.12;60.18;102333.44;5034866;28;20095;-67
2023/08/21 09:53:44;;;;;;;5.35;1.73;;;;;;;24.13;59.33;102328.84;5031978;28;20226;-67
2023/08/21 09:56:10;;;;;;;7.72;1.90;;;;;;;24.19;58.59;102325.22;5028153;28;20024;-67
2023/08/21 09:58:36;;;;;;;8.70;1.80;;;;;;;24.36;58.89;102332.59;5040453;28;20028;-67
2023/08/21 10:01:11;;;;;;;4.72;1.70;;;;;;;24.37;57.70;102323.41;5035641;28;20029;-67
2023/08/21 10:03:38;;;;;;;10.75;2.13;;;;;;;24.58;57.78;102322.13;5037562;28;20021;-68
2023/08/21 10:06:06;;;;;;;10.52;2.30;;;;;;;24.65;56.29;102320.13;5044642;28;20032;-68
2023/08/21 10:08:31;;;;;;;6.45;2.05;;;;;;;24.71;55.21;102321.94;5042149;28;20099;-67
2023/08/21 10:10:57;;;;;;;8.57;1.80;;;;;;;24.82;55.15;102330.38;5035000;28;20021;-68
2023/08/21 10:13:23;;;;;;;5.47;1.90;;;;;;;24.70;55.54;102312.13;5042686;28;20104;-68
2023/08/21 10:15:48;;;;;;;8.70;1.70;;;;;;;24.77;55.38;102301.16;5032445;28;20025;-68
2023/08/21 10:18:25;;;;;;;7.75;1.55;;;;;;;24.95;54.66;102312.00;5037458;28;20033;-68
2023/08/21 10:20:51;;;;;;;9.25;1.90;;;;;;;25.04;54.84;102317.13;5030157;28;20025;-68
2023/08/21 10:23:31;;;;;;;9.40;1.90;;;;;;;25.14;54.37;102312.78;5028096;28;20065;-68
2023/08/21 10:25:58;;;;;;;8.55;1.70;;;;;;;25.22;54.27;102314.38;5035844;28;20047;-67
2023/08/21 10:28:23;;;;;;;5.93;1.80;;;;;;;25.08;54.50;102311.00;5035532;28;20020;-67
2023/08/21 10:30:49;;;;;;;6.13;1.90;;;;;;;25.09;54.04;102309.13;5033164;28;20545;-67
2023/08/21 10:33:14;;;;;;;11.57;2.13;;;;;;;25.04;53.87;102300.84;5030021;28;20021;-67
2023/08/21 10:35:39;;;;;;;7.18;1.80;;;;;;;25.09;54.12;102300.97;5031132;28;20048;-67
2023/08/21 10:38:17;;;;;;;7.28;1.90;;;;;;;25.12;55.18;102304.03;5034375;28;20036;-67
2023/08/21 10:41:04;;;;;;;9.00;1.80;;;;;;;25.30;54.83;102308.59;5037223;28;20034;-67
2023/08/21 10:43:43;;;;;;;8.15;1.90;;;;;;;25.13;54.45;102310.31;5040253;28;20025;-67
2023/08/21 10:46:10;;;;;;;4.95;1.60;;;;;;;24.92;55.17;102312.47;5039013;28;20111;-67
2023/08/21 10:48:36;;;;;;;7.95;1.90;;;;;;;24.66;55.64;102307.38;5042317;28;20028;-68
2023/08/21 10:51:04;;;;;;;8.10;2.15;;;;;;;24.68;56.08;102316.13;5047224;28;20030;-68
2023/08/21 10:53:30;;;;;;;7.28;1.75;;;;;;;24.81;56.95;102315.94;5041552;28;20059;-67
2023/08/21 10:55:57;;;;;;;7.25;1.88;;;;;;;24.91;56.08;102316.25;5047376;28;20062;-68
2023/08/21 10:58:22;;;;;;;6.90;1.77;;;;;;;25.31;55.52;102310.25;5031629;28;20021;-67
2023/08/21 11:00:59;;;;;;;6.63;1.80;;;;;;;25.52;55.19;102312.44;5043825;28;20043;-67
2023/08/21 11:03:24;;;;;;;10.15;1.90;;;;;;;25.69;55.24;102306.31;5045501;28;20127;-67
2023/08/21 11:06:10;;;;;;;7.25;1.70;;;;;;;25.76;53.93;102307.03;5039745;28;20079;-67
2023/08/21 11:08:36;;;;;;;9.05;2.10;;;;;;;25.70;53.69;102299.78;5042687;28;20021;-67
2023/08/21 11:11:04;;;;;;;7.70;1.73;;;;;;;25.76;54.04;102293.44;5043104;28;20100;-67
2023/08/21 11:13:30;;;;;;;8.03;1.70;;;;;;;25.91;52.99;102296.50;5045689;28;20536;-67
2023/08/21 11:16:03;;;;;;;6.72;1.77;;;;;;;25.87;52.63;102296.16;5047757;28;20943;-67
2023/08/21 11:18:32;;;;;;;10.18;1.90;;;;;;;26.07;52.51;102290.34;5045328;28;20029;-68